Time;durP1;ratioP1;P1;durP2;ratioP2;P2;SDS_P1;SDS_P2;PMS_P1;PMS_P2;Temp;Humidity;BMP_temperature;BMP_pressure;BME280_temperature;BME280_humidity;BME280_pressure;Samples;Min_cycle;Max_cycle;Signal;HPM_P1;HPM_P2
2024/02/08 00:01:42;;;;;;;;;;;;;;;8.75;79.90;98385.25;5114738;28;19920;-66
2024/02/08 00:04:11;;;;;;;;;;;;;;;8.77;79.70;98389.44;5114306;28;19920;-66
2024/02/08 00:06:39;;;;;;;;;;;;;;;8.80;79.85;98396.19;5114965;28;19980;-66
2024/02/08 00:09:08;;;;;;;;;;;;;;;8.77;80.15;98386.06;5114723;28;19926;-65
2024/02/08 00:11:36;;;;;;;;;;;;;;;8.80;79.78;98385.19;5114943;28;19923;-66
2024/02/08 00:14:06;;;;;;;;;;;;;;;8.78;80.20;98387.75;5114328;28;19920;-67
2024/02/08 00:16:36;;;;;;;;;;;;;;;8.75;80.02;98387.78;5115306;28;19924;-66
2024/02/08 00:19:05;;;;;;;;;;;;;;;8.71;80.90;98388.69;5114942;28;20365;-67
2024/02/08 00:21:35;;;;;;;;;;;;;;;8.70;80.28;98380.22;5113315;28;19927;-67
2024/02/08 00:24:04;;;;;;;;;;;;;;;8.73;80.78;98389.53;5112851;28;19923;-66
2024/02/08 00:26:32;;;;;;;;;;;;;;;8.80;80.51;98391.13;5114549;28;20018;-67
2024/02/08 00:29:01;;;;;;;;;;;;;;;8.88;80.42;98385.91;5114830;28;20369;-66
2024/02/08 00:31:31;;;;;;;;;;;;;;;8.95;80.47;98390.88;5114520;28;19924;-66
2024/02/08 00:33:59;;;;;;;;;;;;;;;9.01;79.88;98383.16;5114243;28;19988;-67
2024/02/08 00:36:28;;;;;;;;;;;;;;;9.06;79.55;98389.00;5114685;28;19924;-66
2024/02/08 00:38:56;;;;;;;;;;;;;;;9.11;79.88;98384.69;5115230;28;19924;-66
2024/02/08 00:41:25;;;;;;;;;;;;;;;9.15;79.81;98383.78;5113113;28;19919;-66
2024/02/08 00:43:54;;;;;;;;;;;;;;;9.18;79.16;98380.34;5113965;28;20006;-67
2024/02/08 00:46:22;;;;;;;;;;;;;;;9.22;79.04;98385.34;5114524;28;20355;-67
2024/02/08 00:48:54;;;;;;;;;;;;;;;9.27;78.81;98367.47;5114184;28;19988;-66
2024/02/08 00:51:23;;;;;;;;;;;;;;;9.31;78.63;98374.16;5114368;28;19919;-66
2024/02/08 00:53:51;;;;;;;;;;;;;;;9.27;79.16;98368.31;5114154;28;20063;-65
2024/02/08 00:56:21;;;;;;;;;;;;;;;9.22;79.04;98367.53;5112572;28;20292;-66
2024/02/08 00:58:49;;;;;;;;;;;;;;;9.19;80.13;98364.22;5113958;28;20010;-65
2024/02/08 01:01:18;;;;;;;;;;;;;;;9.13;80.28;98365.16;5112704;28;20049;-66
2024/02/08 01:03:46;;;;;;;;;;;;;;;9.10;80.22;98365.19;5115208;28;19927;-66
2024/02/08 01:06:16;;;;;;;;;;;;;;;9.06;80.27;98373.75;5117517;28;19945;-66
2024/02/08 01:08:45;;;;;;;;;;;;;;;9.02;80.67;98377.19;5117623;28;20389;-65
2024/02/08 01:11:14;;;;;;;;;;;;;;;9.01;80.85;98370.44;5117818;27;20361;-66
2024/02/08 01:13:42;;;;;;;;;;;;;;;8.99;80.62;98371.31;5117694;28;20008;-66
2024/02/08 01:16:12;;;;;;;;;;;;;;;9.00;81.23;98368.75;5117662;28;19926;-65
2024/02/08 01:18:41;;;;;;;;;;;;;;;9.01;80.90;98365.34;5117749;27;19929;-66
2024/02/08 01:21:10;;;;;;;;;;;;;;;8.98;80.98;98370.47;5116371;28;19923;-66
2024/02/08 01:23:40;;;;;;;;;;;;;;;8.94;80.58;98373.94;5117179;28;19920;-66
2024/02/08 01:26:08;;;;;;;;;;;;;;;8.91;81.01;98360.41;5116879;28;19966;-66
2024/02/08 01:28:37;;;;;;;;;;;;;;;8.87;81.04;98357.09;5117400;28;19945;-66
2024/02/08 01:31:06;;;;;;;;;;;;;;;8.84;81.29;98352.03;5117479;28;19963;-65
2024/02/08 01:33:36;;;;;;;;;;;;;;;8.83;81.51;98355.44;5116971;28;19919;-66
2024/02/08 01:36:05;;;;;;;;;;;;;;;8.84;81.21;98346.94;5117371;28;20358;-64
2024/02/08 01:38:34;;;;;;;;;;;;;;;8.85;81.33;98348.66;5117332;28;19926;-66
2024/02/08 01:41:06;;;;;;;;;;;;;;;8.84;80.91;98346.94;5117016;28;19920;-67
2024/02/08 01:43:34;;;;;;;;;;;;;;;8.78;81.30;98342.78;5116917;28;19920;-66
2024/02/08 01:46:03;;;;;;;;;;;;;;;8.80;81.10;98352.13;5098918;28;19919;-67
2024/02/08 01:48:32;;;;;;;;;;;;;;;8.84;80.90;98341.88;5117099;28;19920;-66
2024/02/08 01:51:04;;;;;;;;;;;;;;;8.87;80.86;98346.91;5117096;28;19931;-66
2024/02/08 01:53:33;;;;;;;;;;;;;;;8.83;80.93;98347.81;5116078;28;20360;-66
2024/02/08 01:56:02;;;;;;;;;;;;;;;8.86;80.54;98346.91;5116687;28;19924;-66
2024/02/08 01:58:34;;;;;;;;;;;;;;;8.85;80.40;98343.56;5115357;28;19920;-66
2024/02/08 02:01:15;;;;;;;;;;;;;;;8.90;80.39;98346.84;5115777;28;19947;-65
2024/02/08 02:03:44;;;;;;;;;;;;;;;8.97;80.91;98347.59;5115953;28;20001;-65
2024/02/08 02:06:14;;;;;;;;;;;;;;;9.03;79.77;98350.88;5116433;28;20011;-66
2024/02/08 02:08:52;;;;;;;;;;;;;;;9.03;79.66;98348.34;5116386;28;19920;-67
2024/02/08 02:11:25;;;;;;;;;;;;;;;9.06;79.69;98348.31;5116725;28;19924;-66
2024/02/08 02:13:58;;;;;;;;;;;;;;;9.02;79.99;98346.66;5116557;28;19950;-65
2024/02/08 02:16:27;;;;;;;;;;;;;;;8.99;79.63;98351.81;5116051;28;19919;-66
2024/02/08 02:18:56;;;;;;;;;;;;;;;8.95;80.13;98344.25;5116378;28;19955;-66
2024/02/08 02:21:27;;;;;;;;;;;;;;;8.90;79.78;98346.84;5116649;28;20018;-65
2024/02/08 02:23:55;;;;;;;;;;;;;;;8.89;80.13;98350.25;5115996;28;19920;-66
2024/02/08 02:26:24;;;;;;;;;;;;;;;8.88;80.13;98357.94;5116652;28;19926;-67
2024/02/08 02:28:52;;;;;;;;;;;;;;;8.81;80.05;98362.25;5115981;28;19927;-67
2024/02/08 02:31:23;;;;;;;;;;;;;;;8.77;80.47;98358.09;5116212;28;19927;-65
2024/02/08 02:33:53;;;;;;;;;;;;;;;8.71;80.62;98359.00;5115979;28;19919;-66
2024/02/08 02:36:22;;;;;;;;;;;;;;;8.70;80.90;98359.03;5115797;28;19923;-66
2024/02/08 02:38:52;;;;;;;;;;;;;;;8.67;80.91;98344.66;5116049;28;19931;-66
2024/02/08 02:41:25;;;;;;;;;;;;;;;8.66;80.84;98347.25;5116798;28;20267;-66
2024/02/08 02:43:54;;;;;;;;;;;;;;;8.62;81.34;98351.50;5116091;28;19919;-66
2024/02/08 02:46:23;;;;;;;;;;;;;;;8.60;80.87;98345.63;5115650;28;19926;-66
2024/02/08 02:48:51;;;;;;;;;;;;;;;8.53;81.45;98341.47;5115586;28;19919;-65
2024/02/08 02:51:20;;;;;;;;;;;;;;;8.50;81.11;98345.75;5115850;28;19920;-66
2024/02/08 02:53:48;;;;;;;;;;;;;;;8.49;81.38;98344.09;5115519;28;19974;-66
2024/02/08 02:56:19;;;;;;;;;;;;;;;8.46;81.53;98339.03;5115482;28;19919;-66
2024/02/08 02:58:48;;;;;;;;;;;;;;;8.42;82.24;98339.97;5116238;28;19920;-65
2024/02/08 03:01:19;;;;;;;;;;;;;;;8.37;82.20;98344.25;5115261;28;19920;-66
2024/02/08 03:03:47;;;;;;;;;;;;;;;8.35;82.05;98340.91;5115734;28;19958;-67
2024/02/08 03:06:16;;;;;;;;;;;;;;;8.30;82.24;98337.59;5115548;28;20284;-66
2024/02/08 03:08:45;;;;;;;;;;;;;;;8.30;82.54;98335.03;5115837;28;19924;-65
2024/02/08 03:11:15;;;;;;;;;;;;;;;8.28;81.65;98329.13;5115489;28;20369;-66
2024/02/08 03:13:45;;;;;;;;;;;;;;;8.31;82.16;98329.91;5115090;28;19965;-66
2024/02/08 03:16:16;;;;;;;;;;;;;;;8.34;81.67;98339.22;5115164;28;19965;-66
2024/02/08 03:18:48;;;;;;;;;;;;;;;8.34;82.13;98329.88;5115442;28;20282;-66
2024/02/08 03:21:21;;;;;;;;;;;;;;;8.32;82.43;98325.69;5114217;28;19920;-67
2024/02/08 03:23:51;;;;;;;;;;;;;;;8.36;81.98;98333.25;5115123;28;20014;-66
2024/02/08 03:26:26;;;;;;;;;;;;;;;8.37;82.00;98344.25;5113795;28;19920;-66
2024/02/08 03:28:55;;;;;;;;;;;;;;;8.33;81.38;98347.69;5114833;28;19920;-66
2024/02/08 03:31:26;;;;;;;;;;;;;;;8.30;81.51;98343.47;5115104;28;19919;-66
2024/02/08 03:33:55;;;;;;;;;;;;;;;8.30;81.60;98342.66;5115194;28;19969;-66
2024/02/08 03:36:24;;;;;;;;;;;;;;;8.27;81.96;98356.25;5114779;28;20380;-66
2024/02/08 03:38:53;;;;;;;;;;;;;;;8.24;81.52;98347.78;5114705;28;19926;-67
2024/02/08 03:41:26;;;;;;;;;;;;;;;8.23;82.08;98356.28;5114945;28;19964;-67
2024/02/08 03:43:57;;;;;;;;;;;;;;;8.23;82.11;98357.09;5113856;28;19919;-65
2024/02/08 03:46:26;;;;;;;;;;;;;;;8.20;81.93;98349.53;5114986;28;19988;-67
2024/02/08 03:48:56;;;;;;;;;;;;;;;8.21;81.51;98353.75;5114934;28;19919;-67
2024/02/08 03:51:25;;;;;;;;;;;;;;;8.22;82.38;98355.44;5115275;28;19955;-67
2024/02/08 03:53:53;;;;;;;;;;;;;;;8.22;82.02;98359.66;5114608;28;20360;-66
2024/02/08 03:56:26;;;;;;;;;;;;;;;8.18;82.11;98358.03;5114426;28;19928;-66
2024/02/08 03:58:59;;;;;;;;;;;;;;;8.17;82.29;98358.88;5114784;28;19919;-67
2024/02/08 04:01:30;;;;;;;;;;;;;;;8.17;82.59;98361.44;5113464;28;19946;-67
2024/02/08 04:04:11;;;;;;;;;;;;;;;8.15;82.49;98368.22;5114829;28;19921;-66
2024/02/08 04:07:00;;;;;;;;;;;;;;;8.13;82.38;98375.03;5114658;28;20089;-66
2024/02/08 04:09:35;;;;;;;;;;;;;;;8.07;82.59;98369.16;5114423;28;19972;-67
2024/02/08 04:54:26;;;;;;;;;;;;;;;8.04;82.92;98381.91;5118190;28;19926;-66
2024/02/08 04:56:58;;;;;;;;;;;;;;;8.02;82.26;98393.78;5117833;28;19919;-66
2024/02/08 04:59:26;;;;;;;;;;;;;;;8.01;82.80;98399.69;5118167;28;19941;-65
2024/02/08 05:01:56;;;;;;;;;;;;;;;8.02;82.36;98401.41;5117950;28;20369;-66
2024/02/08 05:04:25;;;;;;;;;;;;;;;8.03;82.98;98398.00;5117635;28;20444;-65
2024/02/08 05:06:55;;;;;;;;;;;;;;;8.04;82.41;98397.13;5116782;28;19920;-66
2024/02/08 05:09:25;;;;;;;;;;;;;;;8.06;82.73;98394.59;5117956;28;19920;-65
2024/02/08 05:11:53;;;;;;;;;;;;;;;8.05;82.55;98393.75;5116486;28;20269;-64
2024/02/08 05:14:22;;;;;;;;;;;;;;;8.06;82.28;98390.34;5117779;28;20366;-67
2024/02/08 05:16:54;;;;;;;;;;;;;;;8.06;82.38;98386.97;5117645;28;20357;-66
2024/02/08 05:19:25;;;;;;;;;;;;;;;8.07;82.67;98392.03;5117357;28;20007;-67
2024/02/08 05:21:58;;;;;;;;;;;;;;;8.09;81.97;98394.53;5117647;28;19950;-66
2024/02/08 05:24:30;;;;;;;;;;;;;;;8.08;82.52;98391.19;5117233;28;20014;-66
2024/02/08 05:27:00;;;;;;;;;;;;;;;8.09;82.76;98399.63;5117630;28;19919;-67
2024/02/08 05:29:28;;;;;;;;;;;;;;;8.08;82.67;98393.72;5117787;28;20345;-65
2024/02/08 05:31:58;;;;;;;;;;;;;;;8.08;82.07;98398.81;5117494;28;19919;-66
2024/02/08 05:34:28;;;;;;;;;;;;;;;8.11;82.43;98393.66;5117343;28;19951;-67
2024/02/08 05:37:01;;;;;;;;;;;;;;;8.11;82.82;98388.59;5117748;28;19919;-66
2024/02/08 05:39:29;;;;;;;;;;;;;;;8.11;82.50;98388.59;5117318;28;19920;-66
2024/02/08 05:41:58;;;;;;;;;;;;;;;8.11;82.87;98388.59;5117693;28;20357;-66
2024/02/08 05:44:29;;;;;;;;;;;;;;;8.12;82.80;98402.13;5116813;28;19927;-66
2024/02/08 05:47:06;;;;;;;;;;;;;;;8.11;83.28;98398.75;5117282;28;19919;-66
2024/02/08 05:49:45;;;;;;;;;;;;;;;8.10;82.46;98397.09;5115418;28;19920;-66
2024/02/08 05:52:15;;;;;;;;;;;;;;;8.08;82.11;98398.81;5116693;28;19920;-66
2024/02/08 05:54:45;;;;;;;;;;;;;;;8.05;82.40;98403.91;5116627;28;19920;-65
2024/02/08 05:57:15;;;;;;;;;;;;;;;7.96;82.56;98398.09;5116666;28;19926;-64
2024/02/08 05:59:45;;;;;;;;;;;;;;;7.88;82.45;98400.72;5115770;28;19927;-67
2024/02/08 06:02:22;;;;;;;;;;;;;;;7.82;83.00;98405.03;5115568;28;19920;-67
2024/02/08 06:05:08;;;;;;;;;;;;;;;7.77;83.50;98412.69;5116619;28;19951;-66
2024/02/08 06:07:39;;;;;;;;;;;;;;;7.75;83.48;98409.31;5116521;28;19926;-67
2024/02/08 06:10:14;;;;;;;;;;;;;;;7.75;83.50;98414.38;5115351;28;19968;-66
2024/02/08 06:12:46;;;;;;;;;;;;;;;7.71;83.88;98415.28;5116743;28;19919;-65
2024/02/08 06:15:24;;;;;;;;;;;;;;;7.72;84.57;98414.44;5116974;28;19926;-66
2024/02/08 06:17:58;;;;;;;;;;;;;;;7.68;84.00;98410.22;5115305;28;20010;-67
2024/02/08 06:20:40;;;;;;;;;;;;;;;7.65;84.83;98415.34;5116592;28;20022;-66
2024/02/08 06:26:20;;;;;;;;;;;;;;;7.65;85.10;98406.88;5116468;28;20005;-67
2024/02/08 06:28:38;;;;;;;;;;;;;;;7.64;84.66;98411.13;5116568;28;19927;-66
2024/02/08 06:31:07;;;;;;;;;;;;;;;7.65;85.39;98412.81;5116142;28;20277;-67
2024/02/08 06:33:42;;;;;;;;;;;;;;;7.67;85.44;98415.34;5116211;28;20366;-66
2024/02/08 06:36:22;;;;;;;;;;;;;;;7.69;85.52;98409.38;5116086;28;19945;-66
2024/02/08 06:38:53;;;;;;;;;;;;;;;7.68;85.18;98417.03;5116009;28;19919;-65
2024/02/08 06:41:50;;;;;;;;;;;;;;;7.63;84.82;98416.22;5115893;28;20357;-66
2024/02/08 06:47:18;;;;;;;;;;;;;;;7.60;85.59;98414.56;5115861;28;19969;-66
2024/02/08 07:37:26;;;;;;;;;;;;;;;8.49;85.85;98436.47;5096626;28;19920;-67
2024/02/08 07:40:00;;;;;;;;;;;;;;;8.49;85.52;98436.47;5115104;28;19963;-66
2024/02/08 07:42:32;;;;;;;;;;;;;;;8.47;85.48;98437.34;5114688;28;20285;-67
2024/02/08 07:45:04;;;;;;;;;;;;;;;8.48;85.48;98441.56;5114891;28;19920;-66
2024/02/08 07:47:34;;;;;;;;;;;;;;;8.49;85.05;98433.06;5114665;28;19973;-66
2024/02/08 07:50:05;;;;;;;;;;;;;;;8.50;85.32;98443.22;5113688;28;19919;-67
2024/02/08 07:52:45;;;;;;;;;;;;;;;8.56;85.49;98447.41;5114981;28;19989;-66
2024/02/08 07:55:20;;;;;;;;;;;;;;;8.60;85.40;98449.03;5114852;28;19994;-68
2024/02/08 07:57:57;;;;;;;;;;;;;;;8.67;85.08;98448.09;5114682;28;19989;-66
2024/02/08 08:00:41;;;;;;;;;;;;;;;8.71;84.52;98455.66;5114424;28;19959;-66
2024/02/08 08:03:15;;;;;;;;;;;;;;;8.76;85.00;98453.88;5113449;28;19926;-65
2024/02/08 08:05:51;;;;;;;;;;;;;;;8.80;84.64;98447.06;5114729;28;19926;-66
2024/02/08 08:08:25;;;;;;;;;;;;;;;8.88;84.41;98452.88;5114722;28;19985;-66
2024/02/08 08:11:02;;;;;;;;;;;;;;;8.96;83.80;98446.00;5113513;28;19919;-64
2024/02/08 08:18:57;;;;;;;;;;;;;;;9.27;82.85;98434.50;5118542;28;19919;-67
2024/02/08 08:21:27;;;;;;;;;;;;;;;9.34;82.47;98436.06;5118802;28;20391;-67
2024/02/08 08:24:00;;;;;;;;;;;;;;;9.42;82.06;98441.91;5118461;28;20022;-66
2024/02/08 08:26:38;;;;;;;;;;;;;;;9.52;81.62;98439.19;5116909;28;19920;-65
2024/02/08 08:29:13;;;;;;;;;;;;;;;9.57;82.14;98437.41;5118675;28;19947;-66
2024/02/08 08:31:51;;;;;;;;;;;;;;;9.64;81.85;98439.00;5118362;28;19920;-66
2024/02/08 08:37:02;;;;;;;;;;;;;;;9.78;81.77;98425.16;5118780;28;19924;-67
2024/02/08 08:42:16;;;;;;;;;;;;;;;9.90;81.36;98418.97;5118307;28;19973;-65
2024/02/08 08:44:51;;;;;;;;;;;;;;;9.93;81.14;98418.94;5118413;28;19920;-65
2024/02/08 08:47:24;;;;;;;;;;;;;;;9.97;80.75;98412.91;5117777;28;19977;-67
2024/02/08 08:49:53;;;;;;;;;;;;;;;9.98;81.00;98417.16;5118225;28;20293;-65
2024/02/08 08:52:24;;;;;;;;;;;;;;;9.99;81.15;98426.44;5118434;28;20268;-66
2024/02/08 08:55:10;;;;;;;;;;;;;;;10.03;80.82;98422.97;5099943;28;19923;-65
2024/02/08 08:57:41;;;;;;;;;;;;;;;10.04;80.90;98429.75;5117775;28;19920;-66
2024/02/08 09:00:11;;;;;;;;;;;;;;;10.02;80.75;98426.41;5118071;28;20019;-67
2024/02/08 09:02:42;;;;;;;;;;;;;;;9.99;80.50;98426.44;5117688;28;19926;-65
2024/02/08 09:05:17;;;;;;;;;;;;;;;9.96;80.54;98437.53;5117638;28;20013;-66
2024/02/08 09:07:46;;;;;;;;;;;;;;;9.99;80.05;98447.69;5117899;28;19955;-64
2024/02/08 09:10:15;;;;;;;;;;;;;;;10.01;80.41;98440.84;5117692;28;19927;-68
2024/02/08 09:12:58;;;;;;;;;;;;;;;10.04;80.46;98447.59;5099452;28;19919;-64
2024/02/08 09:15:28;;;;;;;;;;;;;;;10.06;80.55;98438.22;5117411;28;20316;-65
2024/02/08 09:18:07;;;;;;;;;;;;;;;10.11;80.94;98451.72;5099189;28;19945;-66
2024/02/08 09:20:38;;;;;;;;;;;;;;;10.18;81.15;98452.47;5116475;28;20054;-66
2024/02/08 09:23:14;;;;;;;;;;;;;;;10.30;81.08;98458.19;5116208;28;19920;-66
2024/02/08 09:25:44;;;;;;;;;;;;;;;10.41;81.23;98461.38;5116992;28;20290;-66
2024/02/08 09:28:27;;;;;;;;;;;;;;;10.50;80.93;98465.44;5117609;28;19925;-66
2024/02/08 09:30:57;;;;;;;;;;;;;;;10.56;80.53;98471.25;5116171;28;20400;-67
2024/02/08 09:33:44;;;;;;;;;;;;;;;10.59;80.29;98461.00;5117366;28;20367;-66
2024/02/08 09:36:17;;;;;;;;;;;;;;;10.62;79.81;98466.03;5099148;28;19991;-67
2024/02/08 09:38:50;;;;;;;;;;;;;;;10.67;79.52;98463.38;5117038;28;19930;-65
2024/02/08 09:41:23;;;;;;;;;;;;;;;10.71;79.26;98465.84;5116935;28;19919;-67
2024/02/08 09:43:57;;;;;;;;;;;;;;;10.73;78.27;98463.25;5116859;28;19920;-67
2024/02/08 09:49:12;;;;;;;;;;;;;;;10.85;77.86;98462.13;5116999;28;20353;-65
2024/02/08 09:51:52;;;;;;;;;;;;;;;10.90;77.67;98447.56;5098716;28;19969;-64
2024/02/08 09:54:28;;;;;;;;;;;;;;;11.02;77.84;98442.19;5116910;28;20353;-66
2024/02/08 09:57:01;;;;;;;;;;;;;;;11.16;77.70;98438.47;5116475;28;20291;-66
2024/02/08 10:02:24;;;;;;;;;;;;;;;11.46;77.44;98429.25;5114697;28;19920;-65
2024/02/08 10:04:57;;;;;;;;;;;;;;;11.54;77.22;98418.84;5116827;28;19926;-66
2024/02/08 10:07:34;;;;;;;;;;;;;;;11.56;76.35;98427.31;5116494;28;19919;-67
2024/02/08 10:10:17;;;;;;;;;;;;;;;11.60;76.08;98431.44;5116737;28;19919;-66
2024/02/08 10:13:04;;;;;;;;;;;;;;;11.62;75.83;98427.97;5115601;28;19920;-65
2024/02/08 10:15:40;;;;;;;;;;;;;;;11.62;75.58;98422.88;5116338;28;19920;-66
2024/02/08 10:18:10;;;;;;;;;;;;;;;11.63;75.35;98429.66;5116381;28;19920;-67
2024/02/08 10:28:37;;;;;;;;;;;;;;;11.62;75.64;98417.75;5115225;28;19968;-65
2024/02/08 10:31:12;;;;;;;;;;;;;;;11.62;76.05;98417.75;5116047;28;19919;-66
2024/02/08 10:33:47;;;;;;;;;;;;;;;11.59;76.39;98412.72;5116200;28;19964;-67
2024/02/08 10:36:18;;;;;;;;;;;;;;;11.59;76.31;98407.59;5115197;28;19927;-67
2024/02/08 10:39:02;;;;;;;;;;;;;;;11.59;76.31;98410.16;5115976;28;19920;-66
2024/02/08 10:41:38;;;;;;;;;;;;;;;11.63;76.29;98406.66;5116255;28;20265;-68
2024/02/08 10:44:17;;;;;;;;;;;;;;;11.62;76.04;98399.88;5115567;28;20418;-66
2024/02/08 10:46:48;;;;;;;;;;;;;;;11.64;76.08;98410.88;5115964;28;19919;-67
2024/02/08 10:49:22;;;;;;;;;;;;;;;11.64;76.25;98399.81;5116076;28;20428;-67
2024/02/08 10:52:00;;;;;;;;;;;;;;;11.60;75.98;98404.19;5115912;28;19958;-67
2024/02/08 10:54:42;;;;;;;;;;;;;;;11.54;76.11;98389.00;5115832;28;19985;-68
2024/02/08 10:59:58;;;;;;;;;;;;;;;11.49;76.71;98375.53;5115044;28;19926;-66
2024/02/08 11:02:32;;;;;;;;;;;;;;;11.48;76.88;98378.09;5114547;28;19919;-66
2024/02/08 11:05:21;;;;;;;;;;;;;;;11.47;77.08;98373.88;5115707;28;19920;-67
2024/02/08 11:07:53;;;;;;;;;;;;;;;11.47;77.34;98361.94;5115790;28;19920;-67
2024/02/08 11:10:23;;;;;;;;;;;;;;;11.48;77.68;98358.50;5115603;28;19919;-66
2024/02/08 11:12:55;;;;;;;;;;;;;;;11.48;78.22;98362.78;5115588;28;19920;-67
2024/02/08 11:15:30;;;;;;;;;;;;;;;11.47;78.24;98350.88;5115499;28;20007;-66
2024/02/08 11:18:02;;;;;;;;;;;;;;;11.50;78.77;98351.63;5113926;28;19972;-67
2024/02/08 11:20:42;;;;;;;;;;;;;;;11.55;79.01;98365.13;5115152;28;19920;-66
2024/02/08 11:23:12;;;;;;;;;;;;;;;11.58;79.21;98356.56;5113790;28;19934;-68
2024/02/08 11:25:44;;;;;;;;;;;;;;;11.62;79.29;98353.88;5115105;28;19920;-67
2024/02/08 11:28:15;;;;;;;;;;;;;;;11.70;79.49;98349.44;5115364;28;19924;-66
2024/02/08 11:30:54;;;;;;;;;;;;;;;11.76;79.39;98356.09;5115192;28;19965;-67
2024/02/08 11:33:32;;;;;;;;;;;;;;;11.80;79.12;98350.03;5114744;28;19919;-67
2024/02/08 11:36:11;;;;;;;;;;;;;;;11.85;79.29;98354.13;5113853;28;20289;-66
2024/02/08 11:38:46;;;;;;;;;;;;;;;11.88;79.01;98348.94;5114958;28;19923;-67
2024/02/08 11:41:18;;;;;;;;;;;;;;;11.90;79.01;98354.03;5115136;28;20312;-67
2024/02/08 11:43:48;;;;;;;;;;;;;;;11.86;78.80;98345.59;5113747;28;19926;-67
2024/02/08 11:46:18;;;;;;;;;;;;;;;11.80;78.52;98348.31;5115150;28;20353;-66
2024/02/08 11:48:50;;;;;;;;;;;;;;;11.80;78.29;98339.81;5113729;28;19920;-66
2024/02/08 11:51:22;;;;;;;;;;;;;;;11.82;78.16;98340.59;5114902;28;20015;-67
2024/02/08 11:53:51;;;;;;;;;;;;;;;11.81;77.93;98341.47;5115152;28;19927;-67
2024/02/08 11:56:20;;;;;;;;;;;;;;;11.83;77.81;98335.44;5115148;28;19942;-67
2024/02/08 11:58:54;;;;;;;;;;;;;;;11.88;77.88;98328.47;5113367;28;19920;-67
2024/02/08 12:01:26;;;;;;;;;;;;;;;11.91;78.01;98327.56;5114386;28;19955;-67
2024/02/08 12:03:58;;;;;;;;;;;;;;;11.94;78.24;98324.94;5114398;28;19920;-66
2024/02/08 12:06:29;;;;;;;;;;;;;;;11.96;78.20;98325.72;5113141;28;20373;-67
2024/02/08 12:08:58;;;;;;;;;;;;;;;11.96;78.27;98321.44;5114631;28;20373;-65
2024/02/08 12:11:30;;;;;;;;;;;;;;;11.98;78.07;98327.34;5115081;28;19919;-66
2024/02/08 12:14:02;;;;;;;;;;;;;;;11.98;78.34;98319.69;5114493;28;20284;-65
2024/02/08 12:16:46;;;;;;;;;;;;;;;11.98;78.16;98306.91;5114772;28;19962;-67
2024/02/08 12:19:17;;;;;;;;;;;;;;;11.99;77.98;98290.69;5114186;28;19919;-67
2024/02/08 12:21:56;;;;;;;;;;;;;;;12.03;78.06;98297.38;5113281;28;19955;-66
2024/02/08 12:24:31;;;;;;;;;;;;;;;12.02;78.08;98297.44;5112876;28;20281;-68
2024/02/08 12:27:08;;;;;;;;;;;;;;;12.01;77.97;98301.69;5114161;28;20322;-67
2024/02/08 12:29:44;;;;;;;;;;;;;;;12.01;78.25;98306.81;5113348;28;20323;-67
2024/02/08 12:32:17;;;;;;;;;;;;;;;11.99;78.08;98305.19;5112718;28;19924;-65
2024/02/08 12:34:48;;;;;;;;;;;;;;;11.98;77.98;98304.34;5102747;28;20374;-65
2024/02/08 12:37:22;;;;;;;;;;;;;;;11.98;78.15;98312.00;5103758;28;19967;-67
2024/02/08 12:39:52;;;;;;;;;;;;;;;11.97;78.03;98302.66;5102449;28;19970;-66
2024/02/08 12:42:23;;;;;;;;;;;;;;;11.97;78.15;98294.97;5098020;28;19927;-67
2024/02/08 12:44:52;;;;;;;;;;;;;;;11.99;78.38;98294.94;5094217;28;20435;-67
2024/02/08 12:47:23;;;;;;;;;;;;;;;12.01;78.46;98294.03;5093667;28;20369;-67
2024/02/08 12:49:57;;;;;;;;;;;;;;;12.03;78.86;98302.50;5093972;28;19920;-66
2024/02/08 12:52:40;;;;;;;;;;;;;;;12.02;79.45;98300.00;5093815;28;19927;-66
2024/02/08 12:55:09;;;;;;;;;;;;;;;11.98;79.66;98299.22;5092641;28;19920;-66
2024/02/08 12:57:40;;;;;;;;;;;;;;;11.92;80.14;98299.41;5093833;28;19920;-66
2024/02/08 13:00:12;;;;;;;;;;;;;;;11.86;80.44;98294.47;5096049;28;19919;-66
2024/02/08 13:02:42;;;;;;;;;;;;;;;11.82;80.76;98295.44;5097572;28;19923;-66
2024/02/08 13:05:11;;;;;;;;;;;;;;;11.80;81.37;98299.75;5097608;28;20251;-65
2024/02/08 13:07:40;;;;;;;;;;;;;;;11.76;82.03;98293.03;5097519;28;20022;-66
2024/02/08 13:10:15;;;;;;;;;;;;;;;11.74;82.09;98294.78;5079338;28;19920;-67
2024/02/08 13:12:45;;;;;;;;;;;;;;;11.71;82.77;98286.41;5097799;28;20254;-66
2024/02/08 13:15:20;;;;;;;;;;;;;;;11.68;83.29;98289.88;5096974;28;19997;-66
2024/02/08 13:17:50;;;;;;;;;;;;;;;11.64;83.56;98287.38;5096997;28;20010;-66
2024/02/08 13:20:23;;;;;;;;;;;;;;;11.61;83.99;98288.34;5097071;28;19920;-66
2024/02/08 13:22:54;;;;;;;;;;;;;;;11.57;84.44;98284.16;5096708;28;19924;-67
2024/02/08 13:25:27;;;;;;;;;;;;;;;11.54;84.66;98281.69;5097299;28;19927;-65
2024/02/08 13:27:58;;;;;;;;;;;;;;;11.53;84.99;98274.06;5097407;28;19920;-66
2024/02/08 13:30:29;;;;;;;;;;;;;;;11.50;85.61;98275.00;5097159;28;20002;-65
2024/02/08 13:32:58;;;;;;;;;;;;;;;11.49;85.73;98268.22;5097094;28;19920;-65
2024/02/08 13:35:39;;;;;;;;;;;;;;;11.52;86.30;98265.56;5096762;28;20377;-66
2024/02/08 13:38:11;;;;;;;;;;;;;;;11.49;86.40;98258.00;5097015;28;19967;-66
2024/02/08 13:40:44;;;;;;;;;;;;;;;11.49;86.66;98258.00;5096663;28;19989;-66
2024/02/08 13:43:13;;;;;;;;;;;;;;;11.50;86.90;98258.81;5095471;28;20285;-66
2024/02/08 13:45:42;;;;;;;;;;;;;;;11.49;87.02;98258.00;5096791;28;19924;-65
2024/02/08 13:48:14;;;;;;;;;;;;;;;11.47;87.14;98257.19;5096837;28;19927;-65
2024/02/08 13:50:46;;;;;;;;;;;;;;;11.44;87.12;98262.41;5095421;28;19920;-65
2024/02/08 13:53:15;;;;;;;;;;;;;;;11.41;87.23;98254.81;5096823;28;19927;-66
2024/02/08 13:55:45;;;;;;;;;;;;;;;11.38;87.39;98250.63;5096137;28;20281;-66
2024/02/08 13:58:18;;;;;;;;;;;;;;;11.33;87.32;98246.50;5096590;28;19920;-66
2024/02/08 14:00:47;;;;;;;;;;;;;;;11.31;87.19;98248.25;5096635;28;19927;-66
2024/02/08 14:03:17;;;;;;;;;;;;;;;11.30;87.17;98247.41;5096424;28;20022;-65
2024/02/08 14:05:51;;;;;;;;;;;;;;;11.30;87.09;98246.59;5095196;28;19920;-66
2024/02/08 14:08:27;;;;;;;;;;;;;;;11.29;86.92;98244.91;5096488;28;20316;-66
2024/02/08 14:10:58;;;;;;;;;;;;;;;11.27;87.14;98242.41;5095533;28;19920;-65
2024/02/08 14:13:34;;;;;;;;;;;;;;;11.25;86.99;98243.34;5096007;28;19924;-64
2024/02/08 14:16:13;;;;;;;;;;;;;;;11.24;87.08;98236.53;5095965;28;20357;-66
2024/02/08 14:18:51;;;;;;;;;;;;;;;11.23;87.30;98250.16;5095804;28;20018;-65
2024/02/08 14:21:24;;;;;;;;;;;;;;;11.19;87.74;98241.78;5095699;28;19927;-65
2024/02/08 14:23:59;;;;;;;;;;;;;;;11.17;87.46;98232.47;5109754;28;19919;-65
2024/02/08 14:26:37;;;;;;;;;;;;;;;11.13;87.52;98243.66;5116380;28;19923;-66
2024/02/08 14:29:08;;;;;;;;;;;;;;;11.11;87.52;98240.31;5114914;28;19920;-66
2024/02/08 14:31:37;;;;;;;;;;;;;;;11.08;87.60;98235.28;5116581;28;19920;-66
2024/02/08 14:34:10;;;;;;;;;;;;;;;11.06;87.64;98229.38;5116244;27;20007;-65
2024/02/08 14:36:43;;;;;;;;;;;;;;;11.01;87.77;98226.94;5116289;28;19923;-65
2024/02/08 14:41:59;;;;;;;;;;;;;;;10.97;87.66;98221.94;5115805;28;19919;-65
2024/02/08 14:44:40;;;;;;;;;;;;;;;10.97;87.90;98221.94;5116104;28;20444;-65
2024/02/08 14:47:15;;;;;;;;;;;;;;;10.98;87.77;98233.84;5114733;28;19976;-66
2024/02/08 14:52:29;;;;;;;;;;;;;;;10.98;87.74;98228.72;5112301;28;19926;-65
2024/02/08 14:55:09;;;;;;;;;;;;;;;10.98;87.67;98223.63;5115875;28;19920;-66
2024/02/08 14:57:42;;;;;;;;;;;;;;;10.98;87.73;98229.56;5115494;28;19926;-65
2024/02/08 15:02:55;;;;;;;;;;;;;;;10.93;87.72;98215.25;5114559;28;19919;-66
2024/02/08 15:05:48;;;;;;;;;;;;;;;10.93;87.82;98225.44;5115608;28;19926;-65
2024/02/08 15:11:09;;;;;;;;;;;;;;;10.85;88.30;98217.13;5097311;28;20350;-66
2024/02/08 15:13:45;;;;;;;;;;;;;;;10.81;88.37;98215.56;5115172;28;19926;-66
2024/02/08 15:16:21;;;;;;;;;;;;;;;10.80;88.39;98219.00;5115547;28;19920;-67
2024/02/08 15:18:53;;;;;;;;;;;;;;;10.78;88.44;98217.31;5115396;28;20373;-67
2024/02/08 15:21:24;;;;;;;;;;;;;;;10.78;88.87;98221.56;5114005;28;19926;-66
2024/02/08 15:26:44;;;;;;;;;;;;;;;10.70;88.94;98206.44;5115089;28;19919;-65
2024/02/08 15:29:30;;;;;;;;;;;;;;;10.68;89.29;98215.84;5115345;27;19920;-65
2024/02/08 15:32:04;;;;;;;;;;;;;;;10.64;89.32;98209.16;5115233;28;19920;-66
2024/02/08 15:37:20;;;;;;;;;;;;;;;10.57;89.76;98201.69;5113937;28;19926;-65
2024/02/08 15:42:35;;;;;;;;;;;;;;;10.54;89.87;98212.81;5113476;28;19931;-66